Airport View

Enter ICAO identifier to see the current METAR for that AWOS.

KFNL for example

KGPZ 011815Z AUTO 31014G18KT 10SM FEW041 19/11 A2970

1 Sep 2014 18:31

Frequency: 118.425

Phone: 218-326-8337

Other Area AWOS: KHIB - KXVG - KFOZ - KHZX

TAF KHIB 011740Z 0118/0218 32010G18KT P6SM SCT025 OVC035 FM012300 30008KT P6SM SCT040 FM020200 29004KT P6SM BKN050 FM020800 VRB03KT 6SM BR SCT050 FM021300 29002KT P6SM FEW250